SAS7410 GCLP-ENZV
Flight info
| Callsign | SAS7410 |
|---|---|
| Flight time | 4h 58m |
| Altitude | 38000 |
| Route | VASTO DCT NIDEB DCT TIGGI DCT DEMOS DCT SOSOV DCT DOLUR/N0437F390 DCT UNFIT DCT INFEC DCT KISWO DCT AVTIC DCT ANJAK/N0428F380 N38 NOKIN UP16 RIBEL/N0430F390 DCT KLONN DCT KUNEM |
| Aircraft | A20N/M-SDE3FGIJ1RWXY/ALB1 |
Departure
| Time | 2026-04-29 10:55 |
|---|---|
| Airport | Gran Canaria Airport (GCLP) |
Arrival
| Time | 2026-04-29 15:53 |
|---|---|
| Airport | Stavanger Airport, Sola (ENZV) |
| Time | Latitude | Longitude | Altitude | Speed | Heading |
|---|---|---|---|---|---|
| 2026-04-29 10:19 | 27.93578 | -15.38939 | 56 ft | 0 kts | 293° |
| 2026-04-29 10:45 | 27.93567 | -15.38909 | 56 ft | 6 kts | 292° |
| 2026-04-29 10:45 | 27.93555 | -15.38874 | 51 ft | 3 kts | 281° |
| 2026-04-29 10:45 | 27.93554 | -15.38859 | 52 ft | 2 kts | 249° |
| 2026-04-29 10:46 | 27.93560 | -15.38849 | 50 ft | 2 kts | 210° |
| 2026-04-29 10:46 | 27.93570 | -15.38843 | 49 ft | 2 kts | 203° |
| 2026-04-29 10:46 | 27.93571 | -15.38842 | 49 ft | 0 kts | 203° |
| 2026-04-29 10:49 | 27.93571 | -15.38843 | 49 ft | 0 kts | 203° |
| 2026-04-29 10:49 | 27.93554 | -15.38851 | 52 ft | 6 kts | 203° |
| 2026-04-29 10:49 | 27.93484 | -15.38869 | 57 ft | 14 kts | 174° |
| 2026-04-29 10:50 | 27.93426 | -15.38776 | 55 ft | 16 kts | 110° |
| 2026-04-29 10:50 | 27.93349 | -15.38774 | 57 ft | 13 kts | 206° |
| 2026-04-29 10:50 | 27.93262 | -15.38818 | 57 ft | 14 kts | 201° |
| 2026-04-29 10:50 | 27.93167 | -15.38862 | 56 ft | 15 kts | 206° |
| 2026-04-29 10:51 | 27.93067 | -15.38910 | 60 ft | 16 kts | 201° |
| 2026-04-29 10:51 | 27.92961 | -15.38958 | 64 ft | 17 kts | 202° |
| 2026-04-29 10:51 | 27.92851 | -15.39008 | 67 ft | 17 kts | 201° |
| 2026-04-29 10:51 | 27.92734 | -15.39058 | 66 ft | 18 kts | 201° |
| 2026-04-29 10:52 | 27.92614 | -15.39113 | 67 ft | 19 kts | 203° |
| 2026-04-29 10:52 | 27.92489 | -15.39170 | 74 ft | 20 kts | 201° |
| 2026-04-29 10:52 | 27.92359 | -15.39225 | 70 ft | 20 kts | 202° |
| 2026-04-29 10:52 | 27.92228 | -15.39283 | 75 ft | 20 kts | 200° |
| 2026-04-29 10:53 | 27.92115 | -15.39305 | 80 ft | 15 kts | 175° |
| 2026-04-29 10:53 | 27.92015 | -15.39296 | 82 ft | 15 kts | 176° |
| 2026-04-29 10:53 | 27.91930 | -15.39260 | 83 ft | 14 kts | 105° |
| 2026-04-29 10:53 | 27.91988 | -15.39186 | 82 ft | 15 kts | 22° |
| 2026-04-29 10:54 | 27.92004 | -15.39179 | 84 ft | 0 kts | 20° |
| 2026-04-29 10:54 | 27.92048 | -15.39161 | 81 ft | 33 kts | 20° |
| 2026-04-29 10:54 | 27.92506 | -15.38958 | 71 ft | 106 kts | 22° |
| 2026-04-29 10:54 | 27.93373 | -15.38577 | 152 ft | 150 kts | 22° |
| 2026-04-29 10:55 | 27.94363 | -15.38196 | 740 ft | 154 kts | 20° |
| 2026-04-29 10:55 | 27.95397 | -15.37769 | 1381 ft | 158 kts | 20° |
| 2026-04-29 10:55 | 27.96406 | -15.37296 | 2138 ft | 161 kts | 20° |
| 2026-04-29 10:55 | 27.97501 | -15.36794 | 2635 ft | 179 kts | 19° |
| 2026-04-29 10:56 | 27.98718 | -15.36252 | 3138 ft | 197 kts | 19° |
| 2026-04-29 10:56 | 28.00078 | -15.35659 | 3533 ft | 222 kts | 19° |
| 2026-04-29 10:56 | 28.01615 | -15.34995 | 3780 ft | 251 kts | 19° |
| 2026-04-29 10:56 | 28.03273 | -15.34279 | 3877 ft | 256 kts | 19° |
| 2026-04-29 10:57 | 28.04942 | -15.33555 | 3979 ft | 257 kts | 20° |
| 2026-04-29 10:57 | 28.06613 | -15.32828 | 3996 ft | 257 kts | 20° |
| 2026-04-29 10:57 | 28.08284 | -15.32100 | 3998 ft | 257 kts | 19° |
| 2026-04-29 10:57 | 28.09954 | -15.31374 | 3996 ft | 257 kts | 19° |
| 2026-04-29 10:58 | 28.11626 | -15.30648 | 3998 ft | 258 kts | 19° |
| 2026-04-29 10:58 | 28.13299 | -15.29920 | 3995 ft | 257 kts | 20° |
| 2026-04-29 10:58 | 28.14993 | -15.29278 | 4027 ft | 257 kts | 12° |
| 2026-04-29 10:58 | 28.16742 | -15.28797 | 4405 ft | 260 kts | 13° |
| 2026-04-29 10:59 | 28.18501 | -15.28302 | 5323 ft | 260 kts | 13° |
| 2026-04-29 10:59 | 28.20264 | -15.27800 | 6248 ft | 264 kts | 13° |
| 2026-04-29 10:59 | 28.22070 | -15.27283 | 7026 ft | 270 kts | 13° |
| 2026-04-29 10:59 | 28.23907 | -15.26757 | 7858 ft | 275 kts | 12° |
| 2026-04-29 11:00 | 28.25781 | -15.26221 | 8665 ft | 280 kts | 12° |
| 2026-04-29 11:00 | 28.27685 | -15.25676 | 9479 ft | 285 kts | 12° |
| 2026-04-29 11:00 | 28.29601 | -15.25129 | 10219 ft | 291 kts | 12° |
| 2026-04-29 11:00 | 28.31648 | -15.24496 | 10558 ft | 314 kts | 17° |
| 2026-04-29 11:01 | 28.33702 | -15.23506 | 10794 ft | 337 kts | 26° |
| 2026-04-29 11:01 | 28.35726 | -15.22070 | 11392 ft | 346 kts | 32° |
| 2026-04-29 11:01 | 28.37737 | -15.20544 | 12177 ft | 349 kts | 31° |
| 2026-04-29 11:01 | 28.39773 | -15.19021 | 12925 ft | 353 kts | 31° |
| 2026-04-29 11:02 | 28.41836 | -15.17484 | 13681 ft | 357 kts | 31° |
| 2026-04-29 11:02 | 28.43921 | -15.15930 | 14378 ft | 360 kts | 31° |
| 2026-04-29 11:02 | 28.46024 | -15.14360 | 15021 ft | 364 kts | 31° |
| 2026-04-29 11:02 | 28.48155 | -15.12767 | 15668 ft | 368 kts | 31° |
| 2026-04-29 11:03 | 28.50301 | -15.11160 | 16320 ft | 372 kts | 31° |
| 2026-04-29 11:03 | 28.52475 | -15.09532 | 16964 ft | 376 kts | 31° |
| 2026-04-29 11:03 | 28.54667 | -15.07889 | 17596 ft | 380 kts | 31° |
| 2026-04-29 11:03 | 28.56882 | -15.06228 | 18226 ft | 383 kts | 31° |
| 2026-04-29 11:04 | 28.59120 | -15.04549 | 18784 ft | 387 kts | 31° |
| 2026-04-29 11:04 | 28.61376 | -15.02857 | 19311 ft | 390 kts | 31° |
| 2026-04-29 11:04 | 28.63654 | -15.01147 | 19831 ft | 394 kts | 30° |
| 2026-04-29 11:04 | 28.65956 | -14.99417 | 20363 ft | 398 kts | 30° |
| 2026-04-29 11:05 | 28.68278 | -14.97673 | 20882 ft | 402 kts | 30° |
| 2026-04-29 11:05 | 28.70620 | -14.95911 | 21409 ft | 405 kts | 30° |
| 2026-04-29 11:05 | 28.72983 | -14.94133 | 21895 ft | 409 kts | 30° |
| 2026-04-29 11:05 | 28.75370 | -14.92336 | 22422 ft | 413 kts | 30° |
| 2026-04-29 11:06 | 28.77776 | -14.90523 | 22931 ft | 417 kts | 30° |
| 2026-04-29 11:06 | 28.80205 | -14.88693 | 23419 ft | 420 kts | 30° |
| 2026-04-29 11:06 | 28.82653 | -14.86847 | 23853 ft | 424 kts | 30° |
| 2026-04-29 11:06 | 28.85123 | -14.84983 | 24288 ft | 427 kts | 30° |
| 2026-04-29 11:07 | 28.87606 | -14.83108 | 24716 ft | 429 kts | 30° |
| 2026-04-29 11:07 | 28.90103 | -14.81221 | 25129 ft | 432 kts | 30° |
| 2026-04-29 11:07 | 28.92619 | -14.79319 | 25536 ft | 435 kts | 30° |
| 2026-04-29 11:07 | 28.95147 | -14.77407 | 25928 ft | 438 kts | 29° |
| 2026-04-29 11:08 | 28.97658 | -14.75507 | 26322 ft | 440 kts | 29° |
| 2026-04-29 11:08 | 29.00219 | -14.73567 | 26704 ft | 443 kts | 29° |
| 2026-04-29 11:08 | 29.02795 | -14.71616 | 27072 ft | 446 kts | 29° |
| 2026-04-29 11:08 | 29.05382 | -14.69654 | 27446 ft | 448 kts | 29° |
| 2026-04-29 11:09 | 29.07985 | -14.67679 | 27812 ft | 450 kts | 29° |
| 2026-04-29 11:09 | 29.10604 | -14.65691 | 28146 ft | 453 kts | 29° |
| 2026-04-29 11:09 | 29.13235 | -14.63693 | 28493 ft | 455 kts | 29° |
| 2026-04-29 11:09 | 29.15882 | -14.61681 | 28833 ft | 457 kts | 29° |
| 2026-04-29 11:10 | 29.18535 | -14.59663 | 29161 ft | 459 kts | 29° |
| 2026-04-29 11:10 | 29.21205 | -14.57631 | 29471 ft | 462 kts | 29° |
| 2026-04-29 11:10 | 29.23884 | -14.55590 | 29778 ft | 464 kts | 29° |
| 2026-04-29 11:10 | 29.26579 | -14.53536 | 30085 ft | 466 kts | 29° |
| 2026-04-29 11:11 | 29.29285 | -14.51473 | 30351 ft | 468 kts | 29° |
| 2026-04-29 11:11 | 29.32001 | -14.49401 | 30625 ft | 470 kts | 29° |
| 2026-04-29 11:11 | 29.34729 | -14.47318 | 30881 ft | 472 kts | 29° |
| 2026-04-29 11:11 | 29.37469 | -14.45224 | 31162 ft | 474 kts | 29° |
| 2026-04-29 11:12 | 29.40212 | -14.43126 | 31505 ft | 474 kts | 29° |
| 2026-04-29 11:12 | 29.42948 | -14.41032 | 31872 ft | 473 kts | 29° |
| 2026-04-29 11:12 | 29.45685 | -14.38936 | 32196 ft | 473 kts | 29° |
| 2026-04-29 11:12 | 29.48421 | -14.36841 | 32524 ft | 472 kts | 29° |
| 2026-04-29 11:13 | 29.51151 | -14.34748 | 32856 ft | 472 kts | 29° |
| 2026-04-29 11:13 | 29.53876 | -14.32658 | 33178 ft | 471 kts | 29° |
| 2026-04-29 11:13 | 29.56604 | -14.30565 | 33477 ft | 471 kts | 29° |
| 2026-04-29 11:13 | 29.59324 | -14.28476 | 33793 ft | 470 kts | 29° |
| 2026-04-29 11:14 | 29.62046 | -14.26384 | 34080 ft | 470 kts | 29° |
| 2026-04-29 11:14 | 29.64759 | -14.24298 | 34329 ft | 470 kts | 29° |
| 2026-04-29 11:14 | 29.67476 | -14.22208 | 34573 ft | 469 kts | 29° |
| 2026-04-29 11:14 | 29.70188 | -14.20119 | 34817 ft | 469 kts | 29° |
| 2026-04-29 11:15 | 29.72894 | -14.18034 | 35059 ft | 468 kts | 29° |
| 2026-04-29 11:15 | 29.75598 | -14.15950 | 35282 ft | 468 kts | 29° |
| 2026-04-29 11:15 | 29.78300 | -14.13865 | 35506 ft | 467 kts | 29° |
| 2026-04-29 11:15 | 29.80964 | -14.11808 | 35705 ft | 467 kts | 29° |
| 2026-04-29 11:16 | 29.83661 | -14.09725 | 35919 ft | 467 kts | 29° |
| 2026-04-29 11:16 | 29.86355 | -14.07642 | 36134 ft | 466 kts | 29° |
| 2026-04-29 11:16 | 29.89048 | -14.05558 | 36322 ft | 466 kts | 29° |
| 2026-04-29 11:16 | 29.91737 | -14.03477 | 36508 ft | 466 kts | 29° |
| 2026-04-29 11:17 | 29.94427 | -14.01393 | 36704 ft | 465 kts | 29° |
| 2026-04-29 11:17 | 29.97110 | -13.99313 | 36896 ft | 464 kts | 29° |
| 2026-04-29 11:17 | 29.99789 | -13.97235 | 37064 ft | 464 kts | 29° |
| 2026-04-29 11:17 | 30.02468 | -13.95156 | 37234 ft | 464 kts | 29° |
| 2026-04-29 11:18 | 30.05147 | -13.93075 | 37397 ft | 464 kts | 29° |
| 2026-04-29 11:18 | 30.07818 | -13.90998 | 37567 ft | 463 kts | 29° |
| 2026-04-29 11:18 | 30.10490 | -13.88921 | 37707 ft | 463 kts | 29° |
| 2026-04-29 11:18 | 30.13163 | -13.86841 | 37842 ft | 463 kts | 29° |
| 2026-04-29 11:19 | 30.15834 | -13.84760 | 37987 ft | 463 kts | 29° |
| 2026-04-29 11:19 | 30.21165 | -13.80604 | 38016 ft | 462 kts | 29° |
| 2026-04-29 11:20 | 30.26501 | -13.76444 | 38009 ft | 464 kts | 30° |
| 2026-04-29 11:20 | 30.31886 | -13.72238 | 38012 ft | 470 kts | 30° |
| 2026-04-29 11:21 | 30.37340 | -13.67968 | 38026 ft | 476 kts | 30° |
| 2026-04-29 11:21 | 30.42827 | -13.63666 | 38017 ft | 476 kts | 30° |
| 2026-04-29 11:22 | 30.48301 | -13.59367 | 38018 ft | 475 kts | 30° |
| 2026-04-29 11:22 | 30.53923 | -13.55419 | 38017 ft | 471 kts | 24° |
| 2026-04-29 11:23 | 30.59704 | -13.51810 | 38017 ft | 471 kts | 24° |
| 2026-04-29 11:23 | 30.65469 | -13.48195 | 38020 ft | 471 kts | 24° |
| 2026-04-29 11:24 | 30.71229 | -13.44580 | 38022 ft | 470 kts | 24° |
| 2026-04-29 11:24 | 30.76982 | -13.40965 | 38015 ft | 470 kts | 24° |
| 2026-04-29 11:25 | 30.82725 | -13.37351 | 38016 ft | 469 kts | 24° |
| 2026-04-29 11:25 | 30.88430 | -13.33756 | 38015 ft | 469 kts | 24° |
| 2026-04-29 11:26 | 30.97030 | -13.28327 | 38016 ft | 469 kts | 24° |
| 2026-04-29 11:26 | 31.02757 | -13.24706 | 38018 ft | 468 kts | 24° |
| 2026-04-29 11:27 | 31.08479 | -13.21083 | 38017 ft | 468 kts | 24° |
| 2026-04-29 11:27 | 31.14199 | -13.17456 | 38019 ft | 467 kts | 24° |
| 2026-04-29 11:28 | 31.19910 | -13.13830 | 38017 ft | 467 kts | 24° |
| 2026-04-29 11:28 | 31.25614 | -13.10203 | 38012 ft | 467 kts | 24° |
| 2026-04-29 11:29 | 31.31313 | -13.06574 | 38011 ft | 466 kts | 24° |
| 2026-04-29 11:29 | 31.37009 | -13.02942 | 38015 ft | 466 kts | 24° |
| 2026-04-29 11:30 | 31.41736 | -12.99924 | 38012 ft | 465 kts | 25° |
| 2026-04-29 11:30 | 31.47417 | -12.96292 | 38015 ft | 465 kts | 25° |
| 2026-04-29 11:31 | 31.53095 | -12.92657 | 38008 ft | 465 kts | 25° |
| 2026-04-29 11:31 | 31.58769 | -12.89020 | 38003 ft | 464 kts | 25° |
| 2026-04-29 11:32 | 31.64436 | -12.85382 | 38006 ft | 464 kts | 25° |
| 2026-04-29 11:32 | 31.70100 | -12.81741 | 38007 ft | 464 kts | 25° |
| 2026-04-29 11:33 | 31.75761 | -12.78097 | 38005 ft | 464 kts | 25° |
| 2026-04-29 11:33 | 31.81419 | -12.74449 | 38006 ft | 464 kts | 25° |
| 2026-04-29 11:34 | 31.87073 | -12.70799 | 38002 ft | 464 kts | 25° |
| 2026-04-29 11:34 | 31.92728 | -12.67144 | 38005 ft | 464 kts | 25° |
| 2026-04-29 11:35 | 31.98383 | -12.63483 | 38005 ft | 464 kts | 25° |
| 2026-04-29 11:35 | 32.04037 | -12.59818 | 38009 ft | 464 kts | 25° |
| 2026-04-29 11:36 | 32.09688 | -12.56149 | 38006 ft | 464 kts | 25° |
| 2026-04-29 11:36 | 32.15303 | -12.52498 | 38008 ft | 464 kts | 25° |
| 2026-04-29 11:37 | 32.20954 | -12.48819 | 38008 ft | 464 kts | 25° |
| 2026-04-29 11:37 | 32.26601 | -12.45137 | 38006 ft | 464 kts | 25° |
| 2026-04-29 11:38 | 32.32254 | -12.41446 | 38008 ft | 464 kts | 25° |
| 2026-04-29 11:38 | 32.37898 | -12.37756 | 38008 ft | 464 kts | 25° |
| 2026-04-29 11:39 | 32.43550 | -12.34055 | 38008 ft | 464 kts | 25° |
| 2026-04-29 11:39 | 32.49199 | -12.30351 | 38004 ft | 464 kts | 25° |
| 2026-04-29 11:40 | 32.54847 | -12.26641 | 38003 ft | 464 kts | 25° |
| 2026-04-29 11:40 | 32.60494 | -12.22927 | 38001 ft | 464 kts | 25° |
| 2026-04-29 11:41 | 32.66139 | -12.19209 | 38004 ft | 464 kts | 25° |
| 2026-04-29 11:41 | 32.71766 | -12.15497 | 37999 ft | 459 kts | 25° |
| 2026-04-29 11:42 | 32.77337 | -12.11816 | 37999 ft | 459 kts | 25° |
| 2026-04-29 11:42 | 32.82923 | -12.08123 | 38002 ft | 459 kts | 25° |
| 2026-04-29 11:43 | 32.88465 | -12.04452 | 38003 ft | 459 kts | 25° |
| 2026-04-29 11:43 | 32.94037 | -12.00758 | 37999 ft | 457 kts | 25° |
| 2026-04-29 11:44 | 32.99876 | -11.98017 | 37997 ft | 441 kts | 11° |
| 2026-04-29 11:44 | 33.02788 | -11.97039 | 37997 ft | 430 kts | 11° |
| 2026-04-29 11:44 | 33.05665 | -11.96061 | 37999 ft | 431 kts | 12° |
| 2026-04-29 11:45 | 33.11474 | -11.94084 | 37995 ft | 436 kts | 12° |
| 2026-04-29 11:45 | 33.17310 | -11.92095 | 37993 ft | 435 kts | 12° |
| 2026-04-29 11:46 | 33.23132 | -11.90110 | 37997 ft | 435 kts | 11° |
| 2026-04-29 11:46 | 33.28958 | -11.88121 | 37996 ft | 436 kts | 11° |
| 2026-04-29 11:47 | 33.34786 | -11.86128 | 38000 ft | 436 kts | 11° |
| 2026-04-29 11:47 | 33.40617 | -11.84132 | 38001 ft | 436 kts | 11° |
| 2026-04-29 11:48 | 33.46452 | -11.82131 | 37997 ft | 436 kts | 11° |
| 2026-04-29 11:48 | 33.52283 | -11.80129 | 38000 ft | 436 kts | 11° |
| 2026-04-29 11:49 | 33.58114 | -11.78124 | 38002 ft | 436 kts | 11° |
| 2026-04-29 11:49 | 33.63946 | -11.76116 | 38006 ft | 436 kts | 11° |
| 2026-04-29 11:50 | 33.69737 | -11.74119 | 38002 ft | 436 kts | 11° |
| 2026-04-29 11:50 | 33.75608 | -11.72092 | 37995 ft | 436 kts | 11° |
| 2026-04-29 11:51 | 33.81437 | -11.70077 | 37996 ft | 436 kts | 11° |
| 2026-04-29 11:51 | 33.87226 | -11.68072 | 37992 ft | 436 kts | 11° |
| 2026-04-29 11:52 | 33.93056 | -11.66050 | 37997 ft | 436 kts | 11° |
| 2026-04-29 11:52 | 33.98883 | -11.64027 | 37993 ft | 436 kts | 11° |
| 2026-04-29 11:53 | 34.04709 | -11.62001 | 37993 ft | 436 kts | 11° |
| 2026-04-29 11:53 | 34.10534 | -11.59972 | 37993 ft | 436 kts | 11° |
| 2026-04-29 11:54 | 34.16357 | -11.57941 | 37990 ft | 436 kts | 11° |
| 2026-04-29 11:54 | 34.22180 | -11.55908 | 37989 ft | 436 kts | 11° |
| 2026-04-29 11:55 | 34.28007 | -11.53870 | 37994 ft | 436 kts | 11° |
| 2026-04-29 11:55 | 34.33830 | -11.51830 | 37991 ft | 436 kts | 11° |
| 2026-04-29 11:56 | 34.39651 | -11.49788 | 37987 ft | 436 kts | 11° |
| 2026-04-29 11:56 | 34.45474 | -11.47743 | 37988 ft | 435 kts | 11° |
| 2026-04-29 11:57 | 34.51295 | -11.45695 | 37985 ft | 435 kts | 11° |
| 2026-04-29 11:57 | 34.57112 | -11.43646 | 37984 ft | 435 kts | 11° |
| 2026-04-29 11:58 | 34.62932 | -11.41593 | 37980 ft | 435 kts | 11° |
| 2026-04-29 11:58 | 34.68711 | -11.39551 | 37980 ft | 435 kts | 11° |
| 2026-04-29 11:59 | 34.74529 | -11.37492 | 37976 ft | 436 kts | 11° |
| 2026-04-29 11:59 | 34.80384 | -11.35419 | 37979 ft | 441 kts | 11° |
| 2026-04-29 12:00 | 34.86325 | -11.33313 | 37975 ft | 448 kts | 11° |
| 2026-04-29 12:00 | 34.92351 | -11.31171 | 37985 ft | 454 kts | 11° |
| 2026-04-29 12:01 | 34.98444 | -11.29002 | 37979 ft | 457 kts | 11° |
| 2026-04-29 12:01 | 35.04562 | -11.26818 | 37971 ft | 459 kts | 11° |
| 2026-04-29 12:02 | 35.10689 | -11.24629 | 37969 ft | 458 kts | 11° |
| 2026-04-29 12:02 | 35.16815 | -11.22438 | 37973 ft | 459 kts | 11° |
| 2026-04-29 12:03 | 35.22942 | -11.20243 | 37980 ft | 459 kts | 11° |
| 2026-04-29 12:03 | 35.29068 | -11.18045 | 37980 ft | 459 kts | 11° |
| 2026-04-29 12:04 | 35.35195 | -11.15843 | 37975 ft | 459 kts | 11° |
| 2026-04-29 12:04 | 35.41285 | -11.13651 | 37975 ft | 459 kts | 11° |
| 2026-04-29 12:05 | 35.47413 | -11.11442 | 37976 ft | 459 kts | 11° |
| 2026-04-29 12:05 | 35.53546 | -11.09228 | 37972 ft | 459 kts | 11° |
| 2026-04-29 12:06 | 35.59678 | -11.07010 | 37973 ft | 459 kts | 10° |
| 2026-04-29 12:06 | 35.65811 | -11.04788 | 37976 ft | 459 kts | 10° |
| 2026-04-29 12:07 | 35.71942 | -11.02564 | 37973 ft | 459 kts | 10° |
| 2026-04-29 12:07 | 35.78069 | -11.00337 | 37970 ft | 459 kts | 10° |
| 2026-04-29 12:08 | 35.84197 | -10.98107 | 37961 ft | 459 kts | 10° |
| 2026-04-29 12:08 | 35.90322 | -10.95875 | 37960 ft | 459 kts | 10° |
| 2026-04-29 12:09 | 35.96447 | -10.93654 | 37954 ft | 457 kts | 8° |
| 2026-04-29 12:09 | 36.02640 | -10.92099 | 37950 ft | 454 kts | 5° |
| 2026-04-29 12:10 | 36.08839 | -10.90593 | 37948 ft | 454 kts | 5° |
| 2026-04-29 12:10 | 36.15038 | -10.89082 | 37949 ft | 454 kts | 5° |
| 2026-04-29 12:11 | 36.21239 | -10.87569 | 37947 ft | 454 kts | 5° |
| 2026-04-29 12:11 | 36.27443 | -10.86053 | 37947 ft | 455 kts | 5° |
| 2026-04-29 12:12 | 36.33658 | -10.84532 | 37945 ft | 455 kts | 5° |
| 2026-04-29 12:12 | 36.39826 | -10.83019 | 37948 ft | 455 kts | 5° |
| 2026-04-29 12:13 | 36.46043 | -10.81492 | 37945 ft | 456 kts | 5° |
| 2026-04-29 12:13 | 36.52269 | -10.79959 | 37950 ft | 456 kts | 5° |
| 2026-04-29 12:14 | 36.58535 | -10.78415 | 37948 ft | 456 kts | 5° |
| 2026-04-29 12:14 | 36.64724 | -10.76887 | 37954 ft | 457 kts | 5° |
| 2026-04-29 12:15 | 36.70954 | -10.75346 | 37945 ft | 457 kts | 5° |
| 2026-04-29 12:15 | 36.77186 | -10.73802 | 37935 ft | 457 kts | 5° |
| 2026-04-29 12:16 | 36.83422 | -10.72254 | 37934 ft | 457 kts | 5° |
| 2026-04-29 12:16 | 36.89657 | -10.70704 | 37935 ft | 457 kts | 5° |
| 2026-04-29 12:17 | 36.95888 | -10.69153 | 37934 ft | 457 kts | 5° |
| 2026-04-29 12:17 | 37.02118 | -10.67600 | 37938 ft | 457 kts | 5° |
| 2026-04-29 12:18 | 37.08350 | -10.66043 | 37940 ft | 456 kts | 5° |
| 2026-04-29 12:18 | 37.14579 | -10.64485 | 37929 ft | 456 kts | 5° |
| 2026-04-29 12:19 | 37.20806 | -10.62924 | 37929 ft | 456 kts | 5° |
| 2026-04-29 12:19 | 37.27027 | -10.61362 | 37928 ft | 456 kts | 5° |
| 2026-04-29 12:20 | 37.33250 | -10.59797 | 37923 ft | 456 kts | 5° |
| 2026-04-29 12:20 | 37.38413 | -10.58497 | 37916 ft | 456 kts | 5° |
| 2026-04-29 12:21 | 37.44632 | -10.56929 | 37911 ft | 455 kts | 5° |
| 2026-04-29 12:21 | 37.50844 | -10.55360 | 37914 ft | 455 kts | 5° |
| 2026-04-29 12:22 | 37.57056 | -10.53788 | 37910 ft | 455 kts | 5° |
| 2026-04-29 12:22 | 37.63269 | -10.52213 | 37907 ft | 455 kts | 5° |
| 2026-04-29 12:23 | 37.69483 | -10.50635 | 37901 ft | 455 kts | 5° |
| 2026-04-29 12:23 | 37.75694 | -10.49055 | 37903 ft | 455 kts | 5° |
| 2026-04-29 12:24 | 37.81902 | -10.47473 | 37905 ft | 455 kts | 5° |
| 2026-04-29 12:24 | 37.88117 | -10.45886 | 37893 ft | 456 kts | 5° |
| 2026-04-29 12:25 | 37.94333 | -10.44297 | 37889 ft | 456 kts | 5° |
| 2026-04-29 12:26 | 38.03620 | -10.41917 | 37897 ft | 456 kts | 5° |
| 2026-04-29 12:26 | 38.09844 | -10.40319 | 37897 ft | 456 kts | 6° |
| 2026-04-29 12:27 | 38.16073 | -10.38716 | 37892 ft | 457 kts | 6° |
| 2026-04-29 12:27 | 38.22304 | -10.37111 | 37892 ft | 457 kts | 6° |
| 2026-04-29 12:28 | 38.28539 | -10.35501 | 37894 ft | 457 kts | 6° |
| 2026-04-29 12:28 | 38.34777 | -10.33888 | 37893 ft | 458 kts | 6° |
| 2026-04-29 12:29 | 38.41021 | -10.32271 | 37888 ft | 458 kts | 6° |
| 2026-04-29 12:29 | 38.47267 | -10.30650 | 37886 ft | 458 kts | 6° |
| 2026-04-29 12:30 | 38.53516 | -10.29025 | 37886 ft | 458 kts | 6° |
| 2026-04-29 12:30 | 38.59763 | -10.27398 | 37886 ft | 458 kts | 6° |
| 2026-04-29 12:31 | 38.66010 | -10.25768 | 37883 ft | 458 kts | 6° |
| 2026-04-29 12:31 | 38.72260 | -10.24134 | 37881 ft | 458 kts | 7° |
| 2026-04-29 12:32 | 38.78506 | -10.22499 | 37882 ft | 458 kts | 7° |
| 2026-04-29 12:32 | 38.84756 | -10.20859 | 37879 ft | 458 kts | 7° |
| 2026-04-29 12:33 | 38.91002 | -10.19218 | 37878 ft | 458 kts | 7° |
| 2026-04-29 12:33 | 38.97250 | -10.17573 | 37873 ft | 458 kts | 7° |
| 2026-04-29 12:34 | 39.03458 | -10.15935 | 37867 ft | 458 kts | 7° |
| 2026-04-29 12:34 | 39.09706 | -10.14284 | 37865 ft | 458 kts | 7° |
| 2026-04-29 12:35 | 39.15953 | -10.12631 | 37862 ft | 458 kts | 7° |
| 2026-04-29 12:35 | 39.22195 | -10.10975 | 37861 ft | 458 kts | 7° |
| 2026-04-29 12:36 | 39.28368 | -10.09335 | 37856 ft | 459 kts | 7° |
| 2026-04-29 12:36 | 39.34710 | -10.07648 | 37852 ft | 459 kts | 7° |
| 2026-04-29 12:37 | 39.40960 | -10.05981 | 37858 ft | 459 kts | 8° |
| 2026-04-29 12:37 | 39.47226 | -10.04307 | 37855 ft | 459 kts | 8° |
| 2026-04-29 12:38 | 39.53485 | -10.02632 | 37851 ft | 460 kts | 8° |
| 2026-04-29 12:38 | 39.59749 | -10.00953 | 37861 ft | 460 kts | 8° |
| 2026-04-29 12:39 | 39.66017 | -9.99269 | 37860 ft | 460 kts | 8° |
| 2026-04-29 12:39 | 39.72289 | -9.97581 | 37851 ft | 460 kts | 8° |
| 2026-04-29 12:40 | 39.78559 | -9.95890 | 37858 ft | 460 kts | 8° |
| 2026-04-29 12:40 | 39.84786 | -9.94208 | 37850 ft | 460 kts | 8° |
| 2026-04-29 12:41 | 39.91058 | -9.92511 | 37853 ft | 460 kts | 8° |
| 2026-04-29 12:41 | 39.97330 | -9.90811 | 37856 ft | 460 kts | 8° |
| 2026-04-29 12:42 | 40.03604 | -9.89106 | 37853 ft | 460 kts | 8° |
| 2026-04-29 12:42 | 40.09869 | -9.87401 | 37852 ft | 460 kts | 9° |
| 2026-04-29 12:43 | 40.16135 | -9.85693 | 37852 ft | 460 kts | 9° |
| 2026-04-29 12:43 | 40.22393 | -9.83983 | 37847 ft | 459 kts | 9° |
| 2026-04-29 12:44 | 40.28647 | -9.82272 | 37844 ft | 459 kts | 9° |
| 2026-04-29 12:44 | 40.34898 | -9.80557 | 37839 ft | 459 kts | 9° |
| 2026-04-29 12:45 | 40.41148 | -9.78840 | 37833 ft | 459 kts | 9° |
| 2026-04-29 12:45 | 40.47392 | -9.77122 | 37834 ft | 459 kts | 9° |
| 2026-04-29 12:45 | 40.50515 | -9.76261 | 37399 ft | 458 kts | 10° |
| 2026-04-29 12:46 | 40.53612 | -9.75414 | 37696 ft | 450 kts | 11° |
| 2026-04-29 12:46 | 40.56661 | -9.74576 | 37995 ft | 447 kts | 11° |
| 2026-04-29 12:46 | 40.59717 | -9.73731 | 38002 ft | 451 kts | 11° |
| 2026-04-29 12:47 | 40.65907 | -9.72016 | 38000 ft | 457 kts | 11° |
| 2026-04-29 12:47 | 40.72119 | -9.70292 | 38000 ft | 456 kts | 11° |
| 2026-04-29 12:48 | 40.78322 | -9.68568 | 38000 ft | 456 kts | 11° |
| 2026-04-29 12:48 | 40.84528 | -9.66840 | 38000 ft | 456 kts | 12° |
| 2026-04-29 12:49 | 40.90736 | -9.65107 | 38000 ft | 456 kts | 12° |
| 2026-04-29 12:49 | 40.96940 | -9.63372 | 37999 ft | 456 kts | 12° |
| 2026-04-29 12:50 | 41.03141 | -9.61634 | 38000 ft | 456 kts | 12° |
| 2026-04-29 12:50 | 41.09343 | -9.59893 | 38000 ft | 456 kts | 12° |
| 2026-04-29 12:51 | 41.15536 | -9.58151 | 38000 ft | 456 kts | 12° |
| 2026-04-29 12:51 | 41.21741 | -9.56402 | 38000 ft | 456 kts | 12° |
| 2026-04-29 12:52 | 41.27944 | -9.54651 | 38000 ft | 456 kts | 12° |
| 2026-04-29 12:52 | 41.34146 | -9.52897 | 38001 ft | 456 kts | 12° |
| 2026-04-29 12:53 | 41.40349 | -9.51139 | 38000 ft | 456 kts | 12° |
| 2026-04-29 12:53 | 41.46554 | -9.49377 | 38001 ft | 456 kts | 12° |
| 2026-04-29 12:54 | 41.52754 | -9.47613 | 38001 ft | 456 kts | 12° |
| 2026-04-29 12:54 | 41.58960 | -9.45845 | 38001 ft | 456 kts | 12° |
| 2026-04-29 12:55 | 41.65163 | -9.44073 | 38001 ft | 456 kts | 12° |
| 2026-04-29 12:55 | 41.71370 | -9.42298 | 38002 ft | 456 kts | 12° |
| 2026-04-29 12:56 | 41.77567 | -9.40523 | 38001 ft | 456 kts | 12° |
| 2026-04-29 12:56 | 41.83779 | -9.38741 | 38002 ft | 456 kts | 12° |
| 2026-04-29 12:57 | 41.89982 | -9.36957 | 38002 ft | 456 kts | 12° |
| 2026-04-29 12:57 | 41.96024 | -9.34605 | 38000 ft | 456 kts | 19° |
| 2026-04-29 12:58 | 42.02028 | -9.31841 | 37999 ft | 456 kts | 18° |
| 2026-04-29 12:58 | 42.08033 | -9.29097 | 38000 ft | 456 kts | 19° |
| 2026-04-29 12:59 | 42.14037 | -9.26336 | 38000 ft | 456 kts | 19° |
| 2026-04-29 12:59 | 42.20038 | -9.23565 | 38000 ft | 456 kts | 19° |
| 2026-04-29 13:00 | 42.26040 | -9.20788 | 38000 ft | 456 kts | 19° |
| 2026-04-29 13:00 | 42.32039 | -9.18006 | 38001 ft | 456 kts | 19° |
| 2026-04-29 13:01 | 42.38040 | -9.15218 | 38001 ft | 456 kts | 19° |
| 2026-04-29 13:01 | 42.41037 | -9.13822 | 38492 ft | 458 kts | 18° |
| 2026-04-29 13:01 | 42.44086 | -9.12398 | 38101 ft | 465 kts | 18° |
| 2026-04-29 13:01 | 42.47141 | -9.10972 | 37805 ft | 461 kts | 18° |
| 2026-04-29 13:02 | 42.50151 | -9.09566 | 37814 ft | 457 kts | 18° |
| 2026-04-29 13:02 | 42.56205 | -9.06736 | 37810 ft | 462 kts | 18° |
| 2026-04-29 13:03 | 42.62271 | -9.03894 | 37811 ft | 461 kts | 18° |
| 2026-04-29 13:03 | 42.68341 | -9.01045 | 37811 ft | 462 kts | 18° |
| 2026-04-29 13:04 | 42.74411 | -8.98190 | 37807 ft | 462 kts | 18° |
| 2026-04-29 13:04 | 42.80483 | -8.95327 | 37803 ft | 462 kts | 18° |
| 2026-04-29 13:05 | 42.86522 | -8.92475 | 37803 ft | 463 kts | 18° |
| 2026-04-29 13:05 | 42.92649 | -8.89575 | 37801 ft | 463 kts | 18° |
| 2026-04-29 13:06 | 42.98703 | -8.86703 | 37806 ft | 464 kts | 18° |
| 2026-04-29 13:06 | 43.04801 | -8.83804 | 37807 ft | 464 kts | 18° |
| 2026-04-29 13:07 | 43.10902 | -8.80899 | 37810 ft | 465 kts | 18° |
| 2026-04-29 13:07 | 43.17011 | -8.77983 | 37811 ft | 465 kts | 18° |
| 2026-04-29 13:08 | 43.23126 | -8.75058 | 37813 ft | 465 kts | 18° |
| 2026-04-29 13:08 | 43.29238 | -8.72129 | 37812 ft | 466 kts | 18° |
| 2026-04-29 13:09 | 43.35360 | -8.69188 | 37808 ft | 466 kts | 18° |
| 2026-04-29 13:09 | 43.41479 | -8.66243 | 37806 ft | 466 kts | 18° |
| 2026-04-29 13:10 | 43.46611 | -8.63767 | 37810 ft | 466 kts | 18° |
| 2026-04-29 13:10 | 43.52735 | -8.60808 | 37809 ft | 467 kts | 18° |
| 2026-04-29 13:11 | 43.58825 | -8.57859 | 37815 ft | 467 kts | 18° |
| 2026-04-29 13:11 | 43.64951 | -8.54885 | 37816 ft | 467 kts | 18° |
| 2026-04-29 13:12 | 43.71088 | -8.51900 | 37820 ft | 468 kts | 18° |
| 2026-04-29 13:12 | 43.77227 | -8.48907 | 37825 ft | 468 kts | 18° |
| 2026-04-29 13:13 | 43.83372 | -8.45904 | 37824 ft | 469 kts | 18° |
| 2026-04-29 13:13 | 43.89522 | -8.42893 | 37829 ft | 469 kts | 18° |
| 2026-04-29 13:14 | 43.95681 | -8.39870 | 37833 ft | 470 kts | 18° |
| 2026-04-29 13:14 | 44.01840 | -8.36841 | 37840 ft | 470 kts | 18° |
| 2026-04-29 13:15 | 44.08008 | -8.33801 | 37843 ft | 471 kts | 18° |
| 2026-04-29 13:15 | 44.14184 | -8.30751 | 37846 ft | 471 kts | 18° |
| 2026-04-29 13:16 | 44.20362 | -8.27692 | 37845 ft | 471 kts | 18° |
| 2026-04-29 13:16 | 44.26542 | -8.24626 | 37845 ft | 472 kts | 18° |
| 2026-04-29 13:17 | 44.32732 | -8.21548 | 37850 ft | 472 kts | 18° |
| 2026-04-29 13:17 | 44.38922 | -8.18463 | 37853 ft | 472 kts | 18° |
| 2026-04-29 13:18 | 44.45115 | -8.15369 | 37852 ft | 473 kts | 18° |
| 2026-04-29 13:18 | 44.51311 | -8.12266 | 37851 ft | 473 kts | 18° |
| 2026-04-29 13:19 | 44.57504 | -8.09159 | 37856 ft | 473 kts | 18° |
| 2026-04-29 13:19 | 44.63703 | -8.06042 | 37857 ft | 473 kts | 18° |
| 2026-04-29 13:20 | 44.69855 | -8.02941 | 37858 ft | 473 kts | 18° |
| 2026-04-29 13:20 | 44.76090 | -7.99790 | 37856 ft | 473 kts | 18° |
| 2026-04-29 13:21 | 44.82243 | -7.96674 | 37852 ft | 473 kts | 18° |
| 2026-04-29 13:21 | 44.88440 | -7.93530 | 37850 ft | 473 kts | 18° |
| 2026-04-29 13:22 | 44.94633 | -7.90382 | 37849 ft | 473 kts | 18° |
| 2026-04-29 13:22 | 45.00789 | -7.87054 | 37848 ft | 474 kts | 21° |
| 2026-04-29 13:23 | 45.06899 | -7.83539 | 37841 ft | 474 kts | 20° |
| 2026-04-29 13:23 | 45.13015 | -7.80039 | 37852 ft | 474 kts | 20° |
| 2026-04-29 13:24 | 45.19138 | -7.76515 | 37846 ft | 475 kts | 20° |
| 2026-04-29 13:24 | 45.25261 | -7.72977 | 37850 ft | 476 kts | 21° |
| 2026-04-29 13:25 | 45.31394 | -7.69422 | 37853 ft | 476 kts | 21° |
| 2026-04-29 13:25 | 45.40600 | -7.64069 | 37853 ft | 477 kts | 21° |
| 2026-04-29 13:26 | 45.46752 | -7.60480 | 37860 ft | 478 kts | 21° |
| 2026-04-29 13:26 | 45.52905 | -7.56883 | 37864 ft | 478 kts | 21° |
| 2026-04-29 13:27 | 45.59067 | -7.53272 | 37868 ft | 479 kts | 21° |
| 2026-04-29 13:27 | 45.65239 | -7.49646 | 37872 ft | 480 kts | 21° |
| 2026-04-29 13:28 | 45.71412 | -7.46012 | 37872 ft | 480 kts | 21° |
| 2026-04-29 13:28 | 45.77584 | -7.42369 | 37876 ft | 480 kts | 21° |
| 2026-04-29 13:29 | 45.83763 | -7.38713 | 37875 ft | 480 kts | 21° |
| 2026-04-29 13:29 | 45.89938 | -7.35051 | 37880 ft | 480 kts | 21° |
| 2026-04-29 13:30 | 45.96108 | -7.31383 | 37880 ft | 480 kts | 21° |
| 2026-04-29 13:30 | 46.02272 | -7.27709 | 37882 ft | 479 kts | 22° |
| 2026-04-29 13:31 | 46.08431 | -7.24030 | 37883 ft | 479 kts | 22° |
| 2026-04-29 13:31 | 46.14566 | -7.20357 | 37885 ft | 478 kts | 22° |
| 2026-04-29 13:32 | 46.20726 | -7.16659 | 37885 ft | 478 kts | 22° |
| 2026-04-29 13:32 | 46.26857 | -7.12969 | 37883 ft | 477 kts | 22° |
| 2026-04-29 13:33 | 46.32976 | -7.09278 | 37879 ft | 476 kts | 22° |
| 2026-04-29 13:33 | 46.39085 | -7.05585 | 37876 ft | 475 kts | 22° |
| 2026-04-29 13:34 | 46.45176 | -7.01893 | 37876 ft | 474 kts | 22° |
| 2026-04-29 13:34 | 46.51263 | -6.98194 | 37871 ft | 474 kts | 22° |
| 2026-04-29 13:35 | 46.57337 | -6.94495 | 37870 ft | 473 kts | 22° |
| 2026-04-29 13:35 | 46.63402 | -6.90792 | 37873 ft | 473 kts | 23° |
| 2026-04-29 13:36 | 46.69463 | -6.87083 | 37872 ft | 472 kts | 23° |
| 2026-04-29 13:36 | 46.75521 | -6.83366 | 37876 ft | 472 kts | 23° |
| 2026-04-29 13:37 | 46.81578 | -6.79640 | 37877 ft | 472 kts | 23° |
| 2026-04-29 13:37 | 46.87628 | -6.75910 | 37877 ft | 472 kts | 24° |
| 2026-04-29 13:38 | 46.93648 | -6.72189 | 37879 ft | 473 kts | 24° |
| 2026-04-29 13:38 | 46.99704 | -6.68437 | 37879 ft | 473 kts | 24° |
| 2026-04-29 13:39 | 47.05780 | -6.64662 | 37884 ft | 474 kts | 24° |
| 2026-04-29 13:39 | 47.11852 | -6.60881 | 37887 ft | 474 kts | 24° |
| 2026-04-29 13:40 | 47.17929 | -6.57088 | 37894 ft | 475 kts | 24° |
| 2026-04-29 13:40 | 47.24017 | -6.53278 | 37898 ft | 476 kts | 24° |
| 2026-04-29 13:41 | 47.30109 | -6.49456 | 37902 ft | 476 kts | 24° |
| 2026-04-29 13:41 | 47.36213 | -6.45616 | 37902 ft | 477 kts | 24° |
| 2026-04-29 13:42 | 47.42320 | -6.41765 | 37906 ft | 478 kts | 24° |
| 2026-04-29 13:42 | 47.48422 | -6.37907 | 37895 ft | 477 kts | 24° |
| 2026-04-29 13:43 | 47.54516 | -6.34046 | 37904 ft | 475 kts | 25° |
| 2026-04-29 13:43 | 47.60597 | -6.30182 | 37913 ft | 476 kts | 25° |
| 2026-04-29 13:44 | 47.66677 | -6.26309 | 37912 ft | 476 kts | 25° |
| 2026-04-29 13:44 | 47.72758 | -6.22426 | 37910 ft | 475 kts | 25° |
| 2026-04-29 13:45 | 47.78831 | -6.18537 | 37908 ft | 475 kts | 25° |
| 2026-04-29 13:45 | 47.84898 | -6.14643 | 37904 ft | 475 kts | 25° |
| 2026-04-29 13:46 | 47.90923 | -6.10766 | 37912 ft | 475 kts | 25° |
| 2026-04-29 13:46 | 47.96983 | -6.06856 | 37910 ft | 475 kts | 25° |
| 2026-04-29 13:47 | 48.03041 | -6.02937 | 37910 ft | 475 kts | 25° |
| 2026-04-29 13:47 | 48.09104 | -5.99005 | 37910 ft | 475 kts | 25° |
| 2026-04-29 13:48 | 48.15159 | -5.95069 | 37919 ft | 475 kts | 25° |
| 2026-04-29 13:48 | 48.21218 | -5.91119 | 37921 ft | 475 kts | 26° |
| 2026-04-29 13:49 | 48.27272 | -5.87162 | 37926 ft | 475 kts | 26° |
| 2026-04-29 13:49 | 48.33330 | -5.83193 | 37930 ft | 475 kts | 26° |
| 2026-04-29 13:50 | 48.39385 | -5.79214 | 37939 ft | 475 kts | 26° |
| 2026-04-29 13:50 | 48.45430 | -5.75233 | 37944 ft | 475 kts | 26° |
| 2026-04-29 13:51 | 48.51048 | -5.71523 | 37944 ft | 474 kts | 26° |
| 2026-04-29 13:51 | 48.57090 | -5.67522 | 37948 ft | 474 kts | 26° |
| 2026-04-29 13:52 | 48.63135 | -5.63510 | 37944 ft | 474 kts | 26° |
| 2026-04-29 13:52 | 48.69175 | -5.59491 | 37950 ft | 474 kts | 26° |
| 2026-04-29 13:53 | 48.75214 | -5.55462 | 37951 ft | 474 kts | 26° |
| 2026-04-29 13:53 | 48.81250 | -5.51423 | 37954 ft | 474 kts | 26° |
| 2026-04-29 13:54 | 48.87259 | -5.47392 | 37961 ft | 474 kts | 27° |
| 2026-04-29 13:54 | 48.93327 | -5.43312 | 37966 ft | 475 kts | 27° |
| 2026-04-29 13:55 | 48.98348 | -5.39926 | 37962 ft | 475 kts | 27° |
| 2026-04-29 13:55 | 49.04391 | -5.35842 | 37975 ft | 475 kts | 27° |
| 2026-04-29 13:56 | 49.10432 | -5.31748 | 37978 ft | 475 kts | 27° |
| 2026-04-29 13:56 | 49.16481 | -5.27638 | 37981 ft | 476 kts | 27° |
| 2026-04-29 13:57 | 49.22529 | -5.23518 | 37987 ft | 476 kts | 27° |
| 2026-04-29 13:57 | 49.28586 | -5.19379 | 37994 ft | 477 kts | 27° |
| 2026-04-29 13:58 | 49.34639 | -5.15235 | 37998 ft | 477 kts | 27° |
| 2026-04-29 13:58 | 49.40712 | -5.11069 | 38006 ft | 478 kts | 27° |
| 2026-04-29 13:59 | 49.46787 | -5.06911 | 38009 ft | 479 kts | 25° |
| 2026-04-29 13:59 | 49.53220 | -5.04001 | 38182 ft | 484 kts | 15° |
| 2026-04-29 14:00 | 49.56495 | -5.02799 | 38414 ft | 483 kts | 16° |
| 2026-04-29 14:00 | 49.59761 | -5.01586 | 38614 ft | 482 kts | 16° |
| 2026-04-29 14:00 | 49.63019 | -5.00376 | 38804 ft | 481 kts | 16° |
| 2026-04-29 14:00 | 49.66276 | -4.99169 | 38909 ft | 482 kts | 16° |
| 2026-04-29 14:01 | 49.69496 | -4.97976 | 39024 ft | 481 kts | 16° |
| 2026-04-29 14:01 | 49.72750 | -4.96769 | 39034 ft | 481 kts | 16° |
| 2026-04-29 14:01 | 49.79245 | -4.94357 | 39044 ft | 478 kts | 16° |
| 2026-04-29 14:02 | 49.85701 | -4.91956 | 39050 ft | 476 kts | 16° |
| 2026-04-29 14:02 | 49.92135 | -4.89556 | 39057 ft | 475 kts | 16° |
| 2026-04-29 14:03 | 49.98547 | -4.87157 | 39062 ft | 474 kts | 16° |
| 2026-04-29 14:03 | 50.04949 | -4.84756 | 39068 ft | 473 kts | 16° |
| 2026-04-29 14:04 | 50.11334 | -4.82354 | 39058 ft | 471 kts | 17° |
| 2026-04-29 14:04 | 50.17690 | -4.79955 | 39064 ft | 469 kts | 17° |
| 2026-04-29 14:05 | 50.24030 | -4.77558 | 39074 ft | 468 kts | 17° |
| 2026-04-29 14:05 | 50.30352 | -4.75159 | 39076 ft | 467 kts | 17° |
| 2026-04-29 14:06 | 50.36659 | -4.72759 | 39069 ft | 467 kts | 17° |
| 2026-04-29 14:06 | 50.42971 | -4.70351 | 39090 ft | 468 kts | 17° |
| 2026-04-29 14:07 | 50.49335 | -4.67916 | 39092 ft | 472 kts | 17° |
| 2026-04-29 14:07 | 50.55694 | -4.65481 | 39090 ft | 467 kts | 17° |
| 2026-04-29 14:08 | 50.58816 | -4.64285 | 39088 ft | 454 kts | 17° |
| 2026-04-29 14:08 | 50.61804 | -4.63139 | 39090 ft | 442 kts | 17° |
| 2026-04-29 14:08 | 50.67769 | -4.60834 | 39095 ft | 445 kts | 17° |
| 2026-04-29 14:09 | 50.73810 | -4.58492 | 39096 ft | 448 kts | 17° |
| 2026-04-29 14:09 | 50.79846 | -4.56155 | 39100 ft | 446 kts | 17° |
| 2026-04-29 14:10 | 50.85873 | -4.53813 | 39106 ft | 446 kts | 17° |
| 2026-04-29 14:10 | 50.91890 | -4.51467 | 39112 ft | 445 kts | 17° |
| 2026-04-29 14:11 | 50.97905 | -4.49118 | 39117 ft | 445 kts | 17° |
| 2026-04-29 14:11 | 51.03910 | -4.46766 | 39126 ft | 444 kts | 17° |
| 2026-04-29 14:12 | 51.09904 | -4.44411 | 39131 ft | 444 kts | 17° |
| 2026-04-29 14:12 | 51.15893 | -4.42052 | 39134 ft | 443 kts | 17° |
| 2026-04-29 14:13 | 51.21865 | -4.39694 | 39140 ft | 442 kts | 17° |
| 2026-04-29 14:13 | 51.27829 | -4.37332 | 39147 ft | 441 kts | 17° |
| 2026-04-29 14:14 | 51.33776 | -4.34971 | 39164 ft | 440 kts | 17° |
| 2026-04-29 14:14 | 51.39705 | -4.32524 | 39162 ft | 438 kts | 22° |
| 2026-04-29 14:15 | 51.45193 | -4.28549 | 39156 ft | 430 kts | 35° |
| 2026-04-29 14:15 | 51.50228 | -4.23406 | 39160 ft | 429 kts | 36° |
| 2026-04-29 14:16 | 51.55271 | -4.18289 | 39158 ft | 429 kts | 36° |
| 2026-04-29 14:16 | 51.60413 | -4.13400 | 39170 ft | 430 kts | 34° |
| 2026-04-29 14:17 | 51.65542 | -4.08596 | 39168 ft | 429 kts | 34° |
| 2026-04-29 14:17 | 51.70691 | -4.03710 | 39174 ft | 429 kts | 35° |
| 2026-04-29 14:18 | 51.75826 | -3.98804 | 39177 ft | 429 kts | 35° |
| 2026-04-29 14:18 | 51.80956 | -3.93888 | 39178 ft | 429 kts | 35° |
| 2026-04-29 14:19 | 51.86083 | -3.88962 | 39199 ft | 429 kts | 35° |
| 2026-04-29 14:19 | 51.91182 | -3.84052 | 38972 ft | 424 kts | 36° |
| 2026-04-29 14:20 | 51.93716 | -3.81608 | 38515 ft | 422 kts | 36° |
| 2026-04-29 14:20 | 51.96225 | -3.79185 | 38413 ft | 421 kts | 36° |
| 2026-04-29 14:20 | 51.98759 | -3.76727 | 38303 ft | 427 kts | 36° |
| 2026-04-29 14:20 | 52.01309 | -3.74255 | 38210 ft | 427 kts | 36° |
| 2026-04-29 14:21 | 52.06390 | -3.69327 | 38217 ft | 425 kts | 36° |
| 2026-04-29 14:21 | 52.11465 | -3.64386 | 38223 ft | 425 kts | 36° |
| 2026-04-29 14:22 | 52.16533 | -3.59438 | 38230 ft | 424 kts | 36° |
| 2026-04-29 14:22 | 52.21587 | -3.54492 | 38232 ft | 424 kts | 36° |
| 2026-04-29 14:23 | 52.26630 | -3.49542 | 38236 ft | 423 kts | 37° |
| 2026-04-29 14:23 | 52.31647 | -3.44607 | 38246 ft | 417 kts | 37° |
| 2026-04-29 14:24 | 52.36569 | -3.39754 | 38253 ft | 416 kts | 37° |
| 2026-04-29 14:24 | 52.41503 | -3.34871 | 38255 ft | 410 kts | 37° |
| 2026-04-29 14:25 | 52.46369 | -3.30045 | 38263 ft | 409 kts | 37° |
| 2026-04-29 14:25 | 52.51243 | -3.25196 | 38268 ft | 409 kts | 37° |
| 2026-04-29 14:26 | 52.56100 | -3.20352 | 38272 ft | 408 kts | 37° |
| 2026-04-29 14:26 | 52.61117 | -3.15905 | 38277 ft | 417 kts | 23° |
| 2026-04-29 14:27 | 52.66916 | -3.14277 | 38286 ft | 425 kts | 13° |
| 2026-04-29 14:28 | 52.75323 | -3.10508 | 38303 ft | 412 kts | 31° |
| 2026-04-29 14:28 | 52.80500 | -3.06463 | 38312 ft | 412 kts | 31° |
| 2026-04-29 14:29 | 52.85695 | -3.02432 | 38323 ft | 413 kts | 31° |
| 2026-04-29 14:29 | 52.90941 | -2.98521 | 38332 ft | 417 kts | 25° |
| 2026-04-29 14:30 | 52.96391 | -2.95222 | 38358 ft | 417 kts | 26° |
| 2026-04-29 14:30 | 53.01827 | -2.91886 | 38363 ft | 416 kts | 26° |
| 2026-04-29 14:31 | 53.07263 | -2.88546 | 38376 ft | 416 kts | 26° |
| 2026-04-29 14:31 | 53.12651 | -2.85223 | 38381 ft | 415 kts | 26° |
| 2026-04-29 14:32 | 53.18061 | -2.81873 | 38382 ft | 414 kts | 26° |
| 2026-04-29 14:32 | 53.23461 | -2.78520 | 38379 ft | 413 kts | 26° |
| 2026-04-29 14:33 | 53.28834 | -2.75177 | 38374 ft | 412 kts | 26° |
| 2026-04-29 14:33 | 53.34191 | -2.71834 | 38360 ft | 410 kts | 27° |
| 2026-04-29 14:34 | 53.39529 | -2.68493 | 38352 ft | 409 kts | 27° |
| 2026-04-29 14:34 | 53.44843 | -2.65159 | 38344 ft | 407 kts | 27° |
| 2026-04-29 14:35 | 53.50135 | -2.61830 | 38338 ft | 406 kts | 27° |
| 2026-04-29 14:35 | 53.55411 | -2.58502 | 38345 ft | 405 kts | 27° |
| 2026-04-29 14:36 | 53.60680 | -2.55168 | 38342 ft | 404 kts | 27° |
| 2026-04-29 14:36 | 53.65931 | -2.51838 | 38339 ft | 403 kts | 27° |
| 2026-04-29 14:37 | 53.71167 | -2.48507 | 38335 ft | 402 kts | 27° |
| 2026-04-29 14:37 | 53.76402 | -2.45168 | 38344 ft | 402 kts | 26° |
| 2026-04-29 14:38 | 53.81635 | -2.41823 | 38346 ft | 402 kts | 26° |
| 2026-04-29 14:38 | 53.86875 | -2.38463 | 38363 ft | 403 kts | 26° |
| 2026-04-29 14:39 | 53.92121 | -2.35092 | 38372 ft | 404 kts | 26° |
| 2026-04-29 14:39 | 53.97381 | -2.31701 | 38389 ft | 405 kts | 26° |
| 2026-04-29 14:40 | 54.02542 | -2.27979 | 38399 ft | 400 kts | 34° |
| 2026-04-29 14:40 | 54.07290 | -2.23113 | 38420 ft | 399 kts | 36° |
| 2026-04-29 14:41 | 54.12020 | -2.18274 | 38432 ft | 400 kts | 36° |
| 2026-04-29 14:41 | 54.16791 | -2.13382 | 38453 ft | 400 kts | 36° |
| 2026-04-29 14:42 | 54.21563 | -2.08471 | 38465 ft | 401 kts | 36° |
| 2026-04-29 14:42 | 54.26330 | -2.03549 | 38470 ft | 400 kts | 36° |
| 2026-04-29 14:43 | 54.31092 | -1.98616 | 38470 ft | 400 kts | 36° |
| 2026-04-29 14:43 | 54.35841 | -1.93680 | 38474 ft | 399 kts | 36° |
| 2026-04-29 14:44 | 54.40572 | -1.88748 | 38461 ft | 397 kts | 36° |
| 2026-04-29 14:44 | 54.45291 | -1.83817 | 38458 ft | 396 kts | 36° |
| 2026-04-29 14:45 | 54.49986 | -1.78895 | 38458 ft | 394 kts | 36° |
| 2026-04-29 14:45 | 54.53870 | -1.74814 | 38456 ft | 393 kts | 36° |
| 2026-04-29 14:46 | 54.58521 | -1.69914 | 38440 ft | 391 kts | 36° |
| 2026-04-29 14:46 | 54.63155 | -1.65019 | 38431 ft | 390 kts | 36° |
| 2026-04-29 14:47 | 54.67775 | -1.60126 | 38421 ft | 389 kts | 35° |
| 2026-04-29 14:47 | 54.72278 | -1.55343 | 38420 ft | 388 kts | 35° |
| 2026-04-29 14:48 | 54.76890 | -1.50433 | 38421 ft | 388 kts | 35° |
| 2026-04-29 14:48 | 54.81488 | -1.45522 | 38430 ft | 389 kts | 35° |
| 2026-04-29 14:49 | 54.86091 | -1.40595 | 38437 ft | 389 kts | 35° |
| 2026-04-29 14:49 | 54.90706 | -1.35640 | 38445 ft | 390 kts | 35° |
| 2026-04-29 14:50 | 54.95331 | -1.30662 | 38463 ft | 391 kts | 35° |
| 2026-04-29 14:50 | 54.99968 | -1.25656 | 38469 ft | 393 kts | 35° |
| 2026-04-29 14:51 | 55.04618 | -1.20624 | 38472 ft | 394 kts | 35° |
| 2026-04-29 14:51 | 55.09250 | -1.15596 | 38487 ft | 395 kts | 35° |
| 2026-04-29 14:52 | 55.13922 | -1.10512 | 38498 ft | 396 kts | 34° |
| 2026-04-29 14:52 | 55.18611 | -1.05394 | 38502 ft | 397 kts | 34° |
| 2026-04-29 14:53 | 55.23305 | -1.00257 | 38507 ft | 398 kts | 34° |
| 2026-04-29 14:53 | 55.28002 | -0.95101 | 38514 ft | 399 kts | 34° |
| 2026-04-29 14:54 | 55.32697 | -0.89933 | 38515 ft | 399 kts | 34° |
| 2026-04-29 14:54 | 55.37398 | -0.84744 | 38514 ft | 399 kts | 34° |
| 2026-04-29 14:55 | 55.42086 | -0.79555 | 38516 ft | 398 kts | 34° |
| 2026-04-29 14:55 | 55.46773 | -0.74352 | 38511 ft | 398 kts | 34° |
| 2026-04-29 14:56 | 55.51449 | -0.69146 | 38509 ft | 397 kts | 34° |
| 2026-04-29 14:56 | 55.56116 | -0.63936 | 38498 ft | 396 kts | 34° |
| 2026-04-29 14:57 | 55.60768 | -0.58727 | 38492 ft | 396 kts | 34° |
| 2026-04-29 14:57 | 55.65415 | -0.53509 | 38487 ft | 395 kts | 34° |
| 2026-04-29 14:58 | 55.70051 | -0.48289 | 38478 ft | 394 kts | 34° |
| 2026-04-29 14:58 | 55.74676 | -0.43065 | 38480 ft | 394 kts | 34° |
| 2026-04-29 14:59 | 55.79299 | -0.37830 | 38474 ft | 394 kts | 34° |
| 2026-04-29 14:59 | 55.83921 | -0.32580 | 38478 ft | 394 kts | 34° |
| 2026-04-29 15:00 | 55.88541 | -0.27319 | 38475 ft | 394 kts | 34° |
| 2026-04-29 15:00 | 55.93163 | -0.22039 | 38481 ft | 395 kts | 34° |
| 2026-04-29 15:01 | 55.97787 | -0.16743 | 38492 ft | 395 kts | 34° |
| 2026-04-29 15:01 | 56.02417 | -0.11423 | 38498 ft | 396 kts | 34° |
| 2026-04-29 15:02 | 56.07063 | -0.06070 | 38496 ft | 397 kts | 34° |
| 2026-04-29 15:02 | 56.11711 | -0.00699 | 38503 ft | 398 kts | 34° |
| 2026-04-29 15:03 | 56.16338 | 0.04664 | 38513 ft | 399 kts | 34° |
| 2026-04-29 15:03 | 56.21003 | 0.10086 | 38517 ft | 400 kts | 34° |
| 2026-04-29 15:04 | 56.25587 | 0.15427 | 38501 ft | 384 kts | 34° |
| 2026-04-29 15:04 | 56.30077 | 0.20677 | 38507 ft | 388 kts | 34° |
| 2026-04-29 15:05 | 56.34601 | 0.25982 | 38510 ft | 387 kts | 34° |
| 2026-04-29 15:05 | 56.39113 | 0.31288 | 38516 ft | 387 kts | 34° |
| 2026-04-29 15:06 | 56.43626 | 0.36609 | 38514 ft | 387 kts | 34° |
| 2026-04-29 15:06 | 56.48135 | 0.41941 | 38517 ft | 387 kts | 34° |
| 2026-04-29 15:07 | 56.52644 | 0.47288 | 38519 ft | 387 kts | 34° |
| 2026-04-29 15:07 | 56.57148 | 0.52644 | 38516 ft | 387 kts | 34° |
| 2026-04-29 15:08 | 56.61650 | 0.58014 | 38523 ft | 387 kts | 34° |
| 2026-04-29 15:08 | 56.66117 | 0.63358 | 38521 ft | 387 kts | 34° |
| 2026-04-29 15:09 | 56.70611 | 0.68750 | 38517 ft | 387 kts | 34° |
| 2026-04-29 15:09 | 56.75104 | 0.74155 | 38518 ft | 387 kts | 34° |
| 2026-04-29 15:10 | 56.79593 | 0.79573 | 38519 ft | 387 kts | 33° |
| 2026-04-29 15:10 | 56.84081 | 0.85004 | 38517 ft | 387 kts | 33° |
| 2026-04-29 15:11 | 56.88568 | 0.90450 | 38521 ft | 387 kts | 33° |
| 2026-04-29 15:11 | 56.93052 | 0.95909 | 38516 ft | 387 kts | 33° |
| 2026-04-29 15:12 | 56.97535 | 1.01383 | 38519 ft | 387 kts | 33° |
| 2026-04-29 15:12 | 57.02021 | 1.06876 | 38519 ft | 388 kts | 33° |
| 2026-04-29 15:13 | 57.06502 | 1.12380 | 38518 ft | 388 kts | 33° |
| 2026-04-29 15:13 | 57.10987 | 1.17904 | 38522 ft | 388 kts | 33° |
| 2026-04-29 15:14 | 57.15471 | 1.23445 | 38523 ft | 388 kts | 33° |
| 2026-04-29 15:14 | 57.19958 | 1.29005 | 38527 ft | 389 kts | 33° |
| 2026-04-29 15:15 | 57.24449 | 1.34586 | 38532 ft | 389 kts | 33° |
| 2026-04-29 15:15 | 57.28935 | 1.40178 | 38531 ft | 389 kts | 33° |
| 2026-04-29 15:16 | 57.33423 | 1.45789 | 38534 ft | 390 kts | 33° |
| 2026-04-29 15:16 | 57.37914 | 1.51419 | 38531 ft | 390 kts | 33° |
| 2026-04-29 15:17 | 57.42402 | 1.57064 | 38534 ft | 390 kts | 33° |
| 2026-04-29 15:17 | 57.46891 | 1.62727 | 38531 ft | 390 kts | 33° |
| 2026-04-29 15:18 | 57.51375 | 1.68400 | 38534 ft | 390 kts | 33° |
| 2026-04-29 15:18 | 57.55857 | 1.74089 | 38534 ft | 390 kts | 33° |
| 2026-04-29 15:19 | 57.60334 | 1.79790 | 38534 ft | 390 kts | 33° |
| 2026-04-29 15:19 | 57.64811 | 1.85507 | 38527 ft | 390 kts | 34° |
| 2026-04-29 15:20 | 57.69278 | 1.91230 | 38525 ft | 390 kts | 34° |
| 2026-04-29 15:20 | 57.73718 | 1.96934 | 38523 ft | 389 kts | 34° |
| 2026-04-29 15:21 | 57.78182 | 2.02687 | 38526 ft | 389 kts | 34° |
| 2026-04-29 15:21 | 57.82641 | 2.08451 | 38523 ft | 389 kts | 34° |
| 2026-04-29 15:22 | 57.87100 | 2.14232 | 38519 ft | 389 kts | 34° |
| 2026-04-29 15:22 | 57.91554 | 2.20026 | 38522 ft | 389 kts | 34° |
| 2026-04-29 15:23 | 57.96013 | 2.25842 | 38515 ft | 390 kts | 34° |
| 2026-04-29 15:23 | 58.00466 | 2.31670 | 38521 ft | 390 kts | 34° |
| 2026-04-29 15:24 | 58.04920 | 2.37518 | 38521 ft | 390 kts | 34° |
| 2026-04-29 15:24 | 58.09375 | 2.43384 | 38519 ft | 391 kts | 34° |
| 2026-04-29 15:25 | 58.13842 | 2.49283 | 38518 ft | 391 kts | 34° |
| 2026-04-29 15:25 | 58.16065 | 2.52227 | 38307 ft | 390 kts | 34° |
| 2026-04-29 15:25 | 58.18293 | 2.55182 | 37694 ft | 393 kts | 34° |
| 2026-04-29 15:25 | 58.20552 | 2.58181 | 36839 ft | 401 kts | 34° |
| 2026-04-29 15:26 | 58.22865 | 2.61254 | 35856 ft | 411 kts | 34° |
| 2026-04-29 15:26 | 58.25201 | 2.64361 | 34850 ft | 422 kts | 34° |
| 2026-04-29 15:26 | 58.27640 | 2.67610 | 33810 ft | 431 kts | 34° |
| 2026-04-29 15:26 | 58.30107 | 2.70903 | 33166 ft | 439 kts | 34° |
| 2026-04-29 15:27 | 58.32641 | 2.74291 | 32495 ft | 450 kts | 34° |
| 2026-04-29 15:27 | 58.35215 | 2.77743 | 31754 ft | 455 kts | 36° |
| 2026-04-29 15:27 | 58.37608 | 2.81630 | 31258 ft | 450 kts | 44° |
| 2026-04-29 15:27 | 58.39637 | 2.86120 | 30714 ft | 445 kts | 53° |
| 2026-04-29 15:28 | 58.41248 | 2.91108 | 30134 ft | 440 kts | 62° |
| 2026-04-29 15:28 | 58.42158 | 2.94547 | 29768 ft | 435 kts | 62° |
| 2026-04-29 15:28 | 58.43993 | 3.01332 | 29063 ft | 426 kts | 61° |
| 2026-04-29 15:28 | 58.45349 | 3.06314 | 28541 ft | 420 kts | 61° |
| 2026-04-29 15:29 | 58.46683 | 3.11233 | 28019 ft | 414 kts | 61° |
| 2026-04-29 15:29 | 58.49282 | 3.20888 | 27004 ft | 403 kts | 62° |
| 2026-04-29 15:30 | 58.51808 | 3.30331 | 26007 ft | 394 kts | 61° |
| 2026-04-29 15:30 | 58.53047 | 3.34981 | 25519 ft | 390 kts | 61° |
| 2026-04-29 15:30 | 58.54273 | 3.39592 | 25029 ft | 386 kts | 61° |
| 2026-04-29 15:30 | 58.55484 | 3.44151 | 24536 ft | 383 kts | 61° |
| 2026-04-29 15:31 | 58.56685 | 3.48687 | 23993 ft | 381 kts | 61° |
| 2026-04-29 15:31 | 58.57874 | 3.53184 | 23515 ft | 375 kts | 61° |
| 2026-04-29 15:31 | 58.58649 | 3.56121 | 23208 ft | 372 kts | 61° |
| 2026-04-29 15:31 | 58.60194 | 3.61989 | 22570 ft | 365 kts | 61° |
| 2026-04-29 15:32 | 58.61315 | 3.66253 | 22107 ft | 360 kts | 61° |
| 2026-04-29 15:32 | 58.62073 | 3.69143 | 21806 ft | 357 kts | 61° |
| 2026-04-29 15:32 | 58.63184 | 3.73381 | 21335 ft | 353 kts | 61° |
| 2026-04-29 15:32 | 58.64658 | 3.79014 | 20732 ft | 370 kts | 61° |
| 2026-04-29 15:33 | 58.65842 | 3.83534 | 20227 ft | 386 kts | 61° |
| 2026-04-29 15:33 | 58.67050 | 3.88173 | 19727 ft | 389 kts | 61° |
| 2026-04-29 15:33 | 58.67866 | 3.91315 | 19377 ft | 389 kts | 61° |
| 2026-04-29 15:33 | 58.69065 | 3.95949 | 18851 ft | 385 kts | 61° |
| 2026-04-29 15:34 | 58.70228 | 4.00451 | 18330 ft | 378 kts | 61° |
| 2026-04-29 15:34 | 58.71385 | 4.04934 | 17832 ft | 370 kts | 61° |
| 2026-04-29 15:34 | 58.72532 | 4.09386 | 17344 ft | 363 kts | 61° |
| 2026-04-29 15:34 | 58.73628 | 4.13646 | 16873 ft | 357 kts | 61° |
| 2026-04-29 15:35 | 58.74721 | 4.17898 | 16404 ft | 352 kts | 61° |
| 2026-04-29 15:35 | 58.75796 | 4.22090 | 15943 ft | 347 kts | 61° |
| 2026-04-29 15:35 | 58.76854 | 4.26224 | 15493 ft | 342 kts | 61° |
| 2026-04-29 15:35 | 58.77897 | 4.30315 | 15024 ft | 338 kts | 62° |
| 2026-04-29 15:36 | 58.78703 | 4.34564 | 14582 ft | 337 kts | 73° |
| 2026-04-29 15:36 | 58.79078 | 4.39019 | 14118 ft | 337 kts | 84° |
| 2026-04-29 15:36 | 58.79082 | 4.43512 | 13662 ft | 334 kts | 88° |
| 2026-04-29 15:36 | 58.79061 | 4.47960 | 13224 ft | 329 kts | 88° |
| 2026-04-29 15:37 | 58.79048 | 4.52350 | 12789 ft | 325 kts | 88° |
| 2026-04-29 15:37 | 58.79036 | 4.56686 | 12360 ft | 322 kts | 88° |
| 2026-04-29 15:37 | 58.79022 | 4.60981 | 11935 ft | 319 kts | 88° |
| 2026-04-29 15:37 | 58.79005 | 4.65233 | 11510 ft | 316 kts | 88° |
| 2026-04-29 15:38 | 58.78986 | 4.69453 | 11084 ft | 313 kts | 88° |
| 2026-04-29 15:38 | 58.78966 | 4.73610 | 10837 ft | 305 kts | 89° |
| 2026-04-29 15:38 | 58.78944 | 4.77626 | 10637 ft | 295 kts | 89° |
| 2026-04-29 15:38 | 58.78922 | 4.81559 | 10344 ft | 290 kts | 89° |
| 2026-04-29 15:39 | 58.78899 | 4.85396 | 10210 ft | 286 kts | 89° |
| 2026-04-29 15:39 | 58.78877 | 4.89251 | 10067 ft | 288 kts | 89° |
| 2026-04-29 15:39 | 58.78852 | 4.93119 | 9776 ft | 288 kts | 89° |
| 2026-04-29 15:39 | 58.78827 | 4.96973 | 9405 ft | 287 kts | 89° |
| 2026-04-29 15:40 | 58.78799 | 5.00794 | 9054 ft | 283 kts | 89° |
| 2026-04-29 15:40 | 58.78746 | 5.04571 | 8697 ft | 281 kts | 93° |
| 2026-04-29 15:40 | 58.78406 | 5.08263 | 8383 ft | 278 kts | 104° |
| 2026-04-29 15:40 | 58.77779 | 5.11812 | 8329 ft | 285 kts | 107° |
| 2026-04-29 15:41 | 58.77140 | 5.15380 | 8283 ft | 284 kts | 107° |
| 2026-04-29 15:41 | 58.76276 | 5.18718 | 8207 ft | 277 kts | 128° |
| 2026-04-29 15:41 | 58.74786 | 5.20938 | 8112 ft | 268 kts | 156° |
| 2026-04-29 15:41 | 58.72991 | 5.21566 | 7896 ft | 261 kts | 185° |
| 2026-04-29 15:42 | 58.71238 | 5.20920 | 7733 ft | 255 kts | 192° |
| 2026-04-29 15:42 | 58.69465 | 5.20549 | 7358 ft | 258 kts | 178° |
| 2026-04-29 15:42 | 58.67695 | 5.20919 | 7165 ft | 252 kts | 171° |
| 2026-04-29 15:42 | 58.65957 | 5.21450 | 7073 ft | 255 kts | 169° |
| 2026-04-29 15:43 | 58.64269 | 5.22440 | 6977 ft | 252 kts | 155° |
| 2026-04-29 15:43 | 58.62742 | 5.24078 | 6728 ft | 251 kts | 147° |
| 2026-04-29 15:43 | 58.61262 | 5.25828 | 6510 ft | 251 kts | 147° |
| 2026-04-29 15:43 | 58.59833 | 5.27730 | 6293 ft | 249 kts | 137° |
| 2026-04-29 15:44 | 58.58661 | 5.30132 | 6079 ft | 246 kts | 126° |
| 2026-04-29 15:44 | 58.57604 | 5.32702 | 5864 ft | 245 kts | 127° |
| 2026-04-29 15:44 | 58.56563 | 5.35270 | 5654 ft | 244 kts | 121° |
| 2026-04-29 15:44 | 58.55800 | 5.38134 | 5447 ft | 240 kts | 107° |
| 2026-04-29 15:45 | 58.55308 | 5.41183 | 5235 ft | 239 kts | 104° |
| 2026-04-29 15:45 | 58.55100 | 5.44270 | 5028 ft | 233 kts | 78° |
| 2026-04-29 15:45 | 58.55726 | 5.47054 | 4822 ft | 227 kts | 47° |
| 2026-04-29 15:45 | 58.56991 | 5.48767 | 4634 ft | 223 kts | 17° |
| 2026-04-29 15:46 | 58.58513 | 5.49231 | 4440 ft | 222 kts | 5° |
| 2026-04-29 15:46 | 58.60045 | 5.49511 | 4251 ft | 221 kts | 5° |
| 2026-04-29 15:46 | 58.61572 | 5.49801 | 4065 ft | 220 kts | 5° |
| 2026-04-29 15:46 | 58.63087 | 5.50103 | 3871 ft | 220 kts | 5° |
| 2026-04-29 15:47 | 58.64606 | 5.50412 | 3678 ft | 218 kts | 5° |
| 2026-04-29 15:47 | 58.66119 | 5.50722 | 3494 ft | 220 kts | 6° |
| 2026-04-29 15:47 | 58.67633 | 5.51033 | 3302 ft | 218 kts | 5° |
| 2026-04-29 15:47 | 58.69144 | 5.51356 | 3110 ft | 218 kts | 9° |
| 2026-04-29 15:48 | 58.70512 | 5.52541 | 2928 ft | 220 kts | 39° |
| 2026-04-29 15:48 | 58.71370 | 5.54992 | 2749 ft | 224 kts | 67° |
| 2026-04-29 15:48 | 58.71905 | 5.57798 | 2691 ft | 220 kts | 67° |
| 2026-04-29 15:48 | 58.72428 | 5.60494 | 2685 ft | 209 kts | 64° |
| 2026-04-29 15:49 | 58.73176 | 5.62643 | 2719 ft | 186 kts | 39° |
| 2026-04-29 15:49 | 58.74253 | 5.63748 | 2614 ft | 168 kts | 14° |
| 2026-04-29 15:49 | 58.75363 | 5.64098 | 2423 ft | 157 kts | 2° |
| 2026-04-29 15:49 | 58.76410 | 5.64136 | 2220 ft | 144 kts | 358° |
| 2026-04-29 15:50 | 58.77381 | 5.64088 | 2035 ft | 137 kts | 358° |
| 2026-04-29 15:50 | 58.78309 | 5.64062 | 1847 ft | 128 kts | 358° |
| 2026-04-29 15:50 | 58.79172 | 5.64038 | 1675 ft | 121 kts | 358° |
| 2026-04-29 15:50 | 58.80008 | 5.64015 | 1523 ft | 124 kts | 358° |
| 2026-04-29 15:51 | 58.80877 | 5.63984 | 1547 ft | 125 kts | 357° |
| 2026-04-29 15:51 | 58.81747 | 5.63974 | 1330 ft | 126 kts | 356° |
| 2026-04-29 15:51 | 58.82606 | 5.63986 | 1178 ft | 119 kts | 359° |
| 2026-04-29 15:51 | 58.83430 | 5.63961 | 971 ft | 121 kts | 356° |
| 2026-04-29 15:52 | 58.84275 | 5.63935 | 826 ft | 123 kts | 356° |
| 2026-04-29 15:52 | 58.85123 | 5.63884 | 663 ft | 121 kts | 353° |
| 2026-04-29 15:52 | 58.85962 | 5.63846 | 431 ft | 119 kts | 356° |
| 2026-04-29 15:52 | 58.86796 | 5.63824 | 204 ft | 120 kts | 354° |
| 2026-04-29 15:53 | 58.87624 | 5.63789 | 50 ft | 117 kts | 356° |
| 2026-04-29 15:53 | 58.88319 | 5.63746 | 30 ft | 74 kts | 0° |
| 2026-04-29 15:53 | 58.88702 | 5.63753 | 24 ft | 45 kts | 359° |
| 2026-04-29 15:53 | 58.88925 | 5.63744 | 21 ft | 35 kts | 1° |
| 2026-04-29 15:54 | 58.89137 | 5.63740 | 21 ft | 26 kts | 359° |
| 2026-04-29 15:54 | 58.89300 | 5.63720 | 20 ft | 18 kts | 336° |
| 2026-04-29 15:54 | 58.89346 | 5.63554 | 18 ft | 2 kts | 267° |
| 2026-04-29 15:55 | 58.89345 | 5.63497 | 18 ft | 9 kts | 267° |
| 2026-04-29 15:55 | 58.89284 | 5.63400 | 19 ft | 17 kts | 178° |
| 2026-04-29 15:55 | 58.89143 | 5.63406 | 20 ft | 22 kts | 179° |
| 2026-04-29 15:56 | 58.88979 | 5.63409 | 21 ft | 25 kts | 178° |
| 2026-04-29 15:56 | 58.88805 | 5.63413 | 23 ft | 25 kts | 180° |
| 2026-04-29 15:56 | 58.88637 | 5.63418 | 26 ft | 22 kts | 179° |
| 2026-04-29 15:56 | 58.88488 | 5.63420 | 29 ft | 16 kts | 180° |
| 2026-04-29 15:57 | 58.88435 | 5.63269 | 27 ft | 15 kts | 247° |
| 2026-04-29 15:57 | 58.88339 | 5.63249 | 27 ft | 17 kts | 159° |
| 2026-04-29 15:57 | 58.88219 | 5.63299 | 28 ft | 19 kts | 176° |
| 2026-04-29 15:57 | 58.88101 | 5.63234 | 29 ft | 13 kts | 221° |
| 2026-04-29 15:58 | 58.88116 | 5.63151 | 29 ft | 8 kts | 323° |
| 2026-04-29 15:58 | 58.88162 | 5.63065 | 29 ft | 9 kts | 315° |
| 2026-04-29 15:58 | 58.88164 | 5.63060 | 29 ft | 0 kts | 315° |